Hlavní strana
METAR-TAF:

METAR-TAF

Letiště :

Arad, Rumunsko

zeměpisná šířka: 46-12N, zeměpisná délka: 021-24E, výška: 117 m

Aktuální stav počasí

Zpráva byla vytvořena před 38 minutami, v 08:00 UTC
Jižní vítr 13 kt
Teplota 23°C
Vlhkost vzduchu 47%
Tlak 1017 hPa
Viditelnost 10 km a více
Žádná oblačnost pod 1500 m, nevyskytují se cumulonimby.

METAR: LRAR 260800Z 18013KT CAVOK 23/11 Q1017

Čas: 11:38 (08:38 UTC)

Předpověď počasí

Zpráva byla vytvořena před 3 hodinami a 38 minutami, v 05:00 UTC
Předpověď platná od 26 v 06 UTC do 26 v 15 UTC
Jihojihovýchodní vítr 10 kt
Viditelnost 10 km a více
Žádná oblačnost pod 1500 m, nevyskytují se cumulonimby.

TAF: LRAR 260500Z 2606/2615 16010KT CAVOK

Stav a předpovědi počasí z více než 4 000 letišť (zprávy METAR a TAF).

Červené a žluté tečky na mapě představují dostupné meteorologické stanice.

Když kurzor umístíte na tečku, zobrazí se název stanice.

Pak kliknutím zobrazíte stav a předpověď počasí.

Chcete-li změnit mapu, kliknutím na zelené tlačítko se znaménkem +mapu přiblížíte, kliknutím na zelené tlačítko se znaménkem – mapu oddálíte a kliknutím na zelené šipky přejdete na sousední mapy.


METAR-TAF: